KPSP/PSP METAR and TAF weather

Enter ICAO airport designator
Station Type Date Time Source
KPSP METAR 2019/08/22 19:53 UTC NOAA

KPSP 221953Z VRB05KT 10SM CLR 39/08 A2970 RMK AO2 SLP050 T03890083


Station Type Date Time Source
KPSP Decoded METAR 2019/08/22 19:53 UTC NOAA

Station name not available
Aug 22, 2019 - 03:53 PM EDT / 2019.08.22 1953 UTC
Wind: Variable at 6 MPH (5 KT):0
Visibility: 10 mile(s):0
Sky conditions: clear
Temperature: 102.0 F (38.9 C)
Dew Point: 46.9 F (8.3 C)
Relative Humidity: 15%
Pressure (altimeter): 29.7 in. Hg (1005 hPa)
ob: KPSP 221953Z VRB05KT 10SM CLR 39/08 A2970 RMK AO2 SLP050 T03890083
cycle: 20

Station Type Date Time Source
KPSP TAF 2019/08/22 18:33 UTC NOAA

TAF KPSP 221731Z 2218/2318 10008KT P6SM SKC
FM230100 32011G19KT P6SM SKC
FM230600 VRB04KT P6SM SKC

Example: see airport list